Time;durP1;ratioP1;P1;durP2;ratioP2;P2;SDS_P1;SDS_P2;PMS_P1;PMS_P2;Temp;Humidity;BMP_temperature;BMP_pressure;BME280_temperature;BME280_humidity;BME280_pressure;Samples;Min_cycle;Max_cycle;Signal;HPM_P1;HPM_P2
2023/06/18 00:00:22;;;;;;;17.02;12.85;;;15.90;99.90;;;;;;5036224;28;20310;-79
2023/06/18 00:02:49;;;;;;;22.38;13.05;;;15.70;99.90;;;;;;5049644;28;20192;-79
2023/06/18 00:05:16;;;;;;;19.00;13.15;;;15.80;99.90;;;;;;5039483;28;20655;-78
2023/06/18 00:07:42;;;;;;;19.33;14.50;;;15.70;99.90;;;;;;5056037;28;20219;-79
2023/06/18 00:10:10;;;;;;;21.35;13.90;;;15.50;99.90;;;;;;5070266;28;20221;-79
2023/06/18 00:12:38;;;;;;;21.25;13.48;;;15.50;99.90;;;;;;5052545;28;20234;-78
2023/06/18 00:15:05;;;;;;;24.30;13.55;;;15.30;99.90;;;;;;5060375;28;20223;-78
2023/06/18 00:17:32;;;;;;;20.92;13.13;;;15.30;99.90;;;;;;5051872;28;20199;-78
2023/06/18 00:19:59;;;;;;;20.02;14.07;;;14.70;99.90;;;;;;5042338;28;20225;-79
2023/06/18 00:22:26;;;;;;;18.17;12.48;;;14.70;99.90;;;;;;5055946;28;20708;-79
2023/06/18 00:24:54;;;;;;;16.63;12.05;;;14.90;99.90;;;;;;5037220;28;20203;-79
2023/06/18 00:27:21;;;;;;;18.77;13.68;;;14.50;99.90;;;;;;5048934;28;20318;-78
2023/06/18 00:29:49;;;;;;;19.73;13.77;;;14.10;99.90;;;;;;5054909;28;20257;-79
2023/06/18 00:32:16;;;;;;;21.00;13.20;;;14.20;99.90;;;;;;5054405;28;20203;-79
2023/06/18 00:34:46;;;;;;;20.38;13.57;;;14.40;99.90;;;;;;5049052;28;20294;-79
2023/06/18 00:37:13;;;;;;;19.77;14.25;;;14.30;99.90;;;;;;5034903;28;20610;-79
2023/06/18 00:39:40;;;;;;;18.10;12.93;;;14.40;99.90;;;;;;5053099;28;20577;-80
2023/06/18 00:42:07;;;;;;;20.13;13.63;;;14.50;99.90;;;;;;5050123;28;20207;-79
2023/06/18 00:44:34;;;;;;;19.10;13.52;;;14.50;99.90;;;;;;5049850;28;20601;-79
2023/06/18 00:47:04;;;;;;;18.65;14.07;;;14.60;99.90;;;;;;5048419;28;20219;-79
2023/06/18 00:49:30;;;;;;;20.38;13.40;;;14.50;99.90;;;;;;5052862;28;20241;-79
2023/06/18 00:51:59;;;;;;;20.23;13.40;;;14.60;99.90;;;;;;5058850;28;20293;-80
2023/06/18 00:54:31;;;;;;;19.25;13.35;;;14.60;99.90;;;;;;5058916;28;20241;-79
2023/06/18 00:56:59;;;;;;;20.20;13.68;;;14.80;99.90;;;;;;5046626;28;20204;-79
2023/06/18 00:59:27;;;;;;;20.50;13.70;;;14.70;99.90;;;;;;5038997;28;20322;-79
2023/06/18 01:01:55;;;;;;;17.98;13.13;;;14.70;99.90;;;;;;5039290;28;20209;-79
2023/06/18 01:04:26;;;;;;;21.13;13.93;;;14.80;99.90;;;;;;5039260;28;20693;-78
2023/06/18 01:06:53;;;;;;;20.90;13.20;;;14.50;99.90;;;;;;5052105;28;20280;-78
2023/06/18 01:09:22;;;;;;;22.90;13.25;;;14.40;99.90;;;;;;5078912;28;20210;-78
2023/06/18 01:11:51;;;;;;;18.85;13.25;;;14.40;99.90;;;;;;5059114;28;20633;-79
2023/06/18 01:14:19;;;;;;;21.70;15.27;;;14.50;99.90;;;;;;5058610;28;20714;-79
2023/06/18 01:16:47;;;;;;;21.15;14.32;;;14.70;99.90;;;;;;5058220;28;20684;-79
2023/06/18 01:19:27;;;;;;;17.70;13.15;;;14.60;99.90;;;;;;5058302;28;20666;-78
2023/06/18 01:22:01;;;;;;;21.85;13.98;;;14.60;99.90;;;;;;5054739;28;20203;-78
2023/06/18 01:24:33;;;;;;;19.38;12.80;;;14.70;99.90;;;;;;5038553;28;20663;-79
2023/06/18 01:27:02;;;;;;;21.02;14.10;;;14.80;99.90;;;;;;5045235;28;20591;-79
2023/06/18 01:29:30;;;;;;;20.15;13.88;;;14.80;99.90;;;;;;5050334;28;20230;-79
2023/06/18 01:31:57;;;;;;;19.45;13.05;;;14.90;99.90;;;;;;5045600;28;20569;-78
2023/06/18 01:34:24;;;;;;;18.95;13.18;;;14.90;99.90;;;;;;5052221;28;20276;-79
2023/06/18 01:37:03;;;;;;;18.98;13.15;;;14.70;99.90;;;;;;5054165;28;20199;-79
2023/06/18 01:39:39;;;;;;;20.75;14.00;;;14.90;99.90;;;;;;5057825;28;20248;-79
2023/06/18 01:42:14;;;;;;;21.00;13.95;;;14.70;99.90;;;;;;5058140;28;20207;-80
2023/06/18 01:44:45;;;;;;;16.67;12.90;;;14.60;99.90;;;;;;5058431;28;20210;-80
2023/06/18 01:47:14;;;;;;;18.70;12.32;;;14.60;99.90;;;;;;5042022;28;20219;-79
2023/06/18 01:49:44;;;;;;;18.92;13.82;;;14.50;99.90;;;;;;5049654;28;20209;-80
2023/06/18 01:52:15;;;;;;;18.95;12.57;;;14.30;99.90;;;;;;5057947;28;20310;-80
2023/06/18 01:54:44;;;;;;;19.75;12.55;;;14.10;99.90;;;;;;5039434;28;20200;-79
2023/06/18 01:57:10;;;;;;;17.98;13.10;;;14.10;99.90;;;;;;5037712;28;20206;-80
2023/06/18 01:59:41;;;;;;;20.27;13.45;;;14.30;99.90;;;;;;5048458;28;20655;-79
2023/06/18 02:02:08;;;;;;;17.70;12.35;;;14.30;99.90;;;;;;5051094;28;20231;-79
2023/06/18 02:04:35;;;;;;;20.33;12.57;;;14.10;99.90;;;;;;5038837;28;20200;-79
2023/06/18 02:07:01;;;;;;;18.17;12.68;;;14.20;99.90;;;;;;5037467;28;20652;-79
2023/06/18 02:09:30;;;;;;;18.45;12.65;;;14.40;99.90;;;;;;5038677;28;20584;-79
2023/06/18 02:11:57;;;;;;;21.53;12.93;;;14.30;99.90;;;;;;5038025;28;20210;-79
2023/06/18 02:14:24;;;;;;;19.35;13.20;;;14.10;99.90;;;;;;5046345;28;20209;-79
2023/06/18 02:16:51;;;;;;;19.10;12.40;;;14.20;99.90;;;;;;5056297;28;20218;-79
2023/06/18 02:19:17;;;;;;;20.77;13.97;;;14.10;99.90;;;;;;5056624;28;20202;-79
2023/06/18 02:21:44;;;;;;;19.08;12.75;;;14.30;99.90;;;;;;5043441;28;20607;-80
2023/06/18 02:24:11;;;;;;;17.23;12.80;;;14.30;99.90;;;;;;5039061;28;20950;-80
2023/06/18 02:26:39;;;;;;;19.00;13.02;;;14.20;99.90;;;;;;5057082;28;20203;-80
2023/06/18 02:29:06;;;;;;;19.40;13.65;;;14.10;99.90;;;;;;5056584;28;20277;-80
2023/06/18 02:31:32;;;;;;;18.83;12.80;;;14.10;99.90;;;;;;5057638;28;20320;-80
2023/06/18 02:33:59;;;;;;;19.35;13.02;;;14.10;99.90;;;;;;5057712;28;20207;-80
2023/06/18 02:36:27;;;;;;;19.55;13.00;;;14.20;99.90;;;;;;5048597;28;20210;-80
2023/06/18 02:38:53;;;;;;;17.75;12.43;;;14.30;99.90;;;;;;5048189;28;20199;-80
2023/06/18 02:41:20;;;;;;;20.88;12.13;;;14.20;99.90;;;;;;5042062;28;20690;-79
2023/06/18 02:43:49;;;;;;;18.60;12.77;;;14.10;99.90;;;;;;5041030;28;20203;-80
2023/06/18 02:46:16;;;;;;;17.63;12.20;;;13.90;99.90;;;;;;5057122;28;20211;-79
2023/06/18 02:48:43;;;;;;;18.53;11.87;;;14.10;99.90;;;;;;5052802;28;20212;-80
2023/06/18 02:51:10;;;;;;;18.08;12.88;;;14.10;99.90;;;;;;5037551;28;20589;-80
2023/06/18 02:53:37;;;;;;;19.00;12.85;;;14.00;99.90;;;;;;5049667;28;20210;-79
2023/06/18 02:56:04;;;;;;;21.70;12.45;;;14.10;99.90;;;;;;5055018;28;20693;-80
2023/06/18 02:58:35;;;;;;;21.23;11.77;;;13.60;99.90;;;;;;5054885;28;20861;-79
2023/06/18 03:01:04;;;;;;;22.55;12.48;;;13.10;99.90;;;;;;5037640;28;20311;-79
2023/06/18 03:03:30;;;;;;;22.65;12.35;;;13.30;99.90;;;;;;5045723;28;20195;-79
2023/06/18 03:05:57;;;;;;;18.80;12.93;;;13.30;99.90;;;;;;5048787;28;20195;-78
2023/06/18 03:08:24;;;;;;;21.30;12.63;;;13.50;99.90;;;;;;5055749;28;20226;-79
2023/06/18 03:10:51;;;;;;;25.13;12.27;;;13.60;99.90;;;;;;5056047;28;20306;-80
2023/06/18 03:13:18;;;;;;;21.93;11.90;;;13.60;99.90;;;;;;5055885;28;20198;-80
2023/06/18 03:15:44;;;;;;;23.57;12.40;;;13.20;99.90;;;;;;5037910;28;20317;-80
2023/06/18 03:18:12;;;;;;;19.47;11.67;;;13.10;99.90;;;;;;5042352;28;20191;-81
2023/06/18 03:20:39;;;;;;;19.43;13.03;;;13.50;99.90;;;;;;5052023;28;20222;-80
2023/06/18 03:23:06;;;;;;;20.17;12.77;;;13.90;99.90;;;;;;5045427;28;20671;-81
2023/06/18 03:25:33;;;;;;;19.80;13.23;;;14.10;99.90;;;;;;5048963;28;20203;-81
2023/06/18 03:28:00;;;;;;;17.13;13.27;;;14.10;99.90;;;;;;5046913;28;20214;-79
2023/06/18 03:30:26;;;;;;;19.77;13.73;;;14.10;99.90;;;;;;5035228;28;20220;-79
2023/06/18 03:32:55;;;;;;;18.77;12.00;;;14.10;99.90;;;;;;5036669;28;20662;-79
2023/06/18 03:35:23;;;;;;;17.40;13.13;;;14.10;99.90;;;;;;5039623;28;20670;-79
2023/06/18 03:37:50;;;;;;;18.80;13.82;;;14.20;99.90;;;;;;5055282;28;20221;-79
2023/06/18 03:40:17;;;;;;;19.23;12.63;;;14.40;99.90;;;;;;5056222;28;20218;-80
2023/06/18 03:42:43;;;;;;;20.33;13.82;;;14.50;99.90;;;;;;5053868;28;20203;-80
2023/06/18 03:45:11;;;;;;;21.27;13.77;;;14.50;99.90;;;;;;5040230;28;20198;-80
2023/06/18 03:47:38;;;;;;;19.08;13.05;;;14.50;99.90;;;;;;5035105;28;20290;-80
2023/06/18 03:50:08;;;;;;;20.33;13.35;;;14.60;99.90;;;;;;5043329;28;20219;-79
2023/06/18 03:52:36;;;;;;;18.52;13.25;;;14.60;99.90;;;;;;5054340;28;20211;-80
2023/06/18 03:55:04;;;;;;;19.17;13.40;;;14.60;99.90;;;;;;5054195;28;20207;-79
2023/06/18 03:57:31;;;;;;;19.08;12.55;;;14.70;99.90;;;;;;5042639;28;20206;-80
2023/06/18 03:59:58;;;;;;;20.33;12.82;;;14.50;99.90;;;;;;5060328;28;20277;-78
2023/06/18 04:02:25;;;;;;;20.92;12.70;;;14.80;99.90;;;;;;5046435;28;20207;-79
2023/06/18 04:04:51;;;;;;;19.85;12.68;;;14.90;99.90;;;;;;5057895;28;20244;-79
2023/06/18 04:07:18;;;;;;;18.63;12.52;;;14.60;99.90;;;;;;5053283;28;20206;-80
2023/06/18 04:09:46;;;;;;;18.60;12.48;;;14.50;99.90;;;;;;5048637;28;20234;-79
2023/06/18 04:12:13;;;;;;;19.73;12.90;;;15.00;99.90;;;;;;5054373;28;20275;-79
2023/06/18 04:14:41;;;;;;;19.67;12.13;;;16.30;99.90;;;;;;5059021;28;20205;-80
2023/06/18 04:17:08;;;;;;;19.48;13.30;;;16.30;99.90;;;;;;5044605;28;20215;-79
2023/06/18 04:19:35;;;;;;;20.77;12.70;;;16.10;99.90;;;;;;5051394;28;20202;-79
2023/06/18 04:22:02;;;;;;;21.10;12.13;;;17.00;99.90;;;;;;5059011;28;20199;-79
2023/06/18 04:24:29;;;;;;;20.05;12.52;;;16.80;99.90;;;;;;5043986;28;20207;-80
2023/06/18 04:26:57;;;;;;;20.67;13.02;;;16.40;99.90;;;;;;5053389;28;20199;-80
2023/06/18 04:29:24;;;;;;;24.35;13.25;;;15.80;99.90;;;;;;5061324;28;20234;-79
2023/06/18 04:31:51;;;;;;;21.58;13.65;;;15.40;99.90;;;;;;5052305;28;20207;-80
2023/06/18 04:34:17;;;;;;;21.45;14.35;;;15.60;99.90;;;;;;5042456;28;20203;-82
2023/06/18 04:36:44;;;;;;;20.10;13.52;;;15.70;99.90;;;;;;5055710;28;20203;-81
2023/06/18 04:39:12;;;;;;;19.25;13.70;;;15.70;99.90;;;;;;5059321;28;20642;-80
2023/06/18 04:41:38;;;;;;;19.27;13.13;;;15.70;99.90;;;;;;5045607;28;20307;-80
2023/06/18 04:44:07;;;;;;;21.63;13.93;;;15.40;99.90;;;;;;5046100;28;20207;-81
2023/06/18 04:46:34;;;;;;;19.83;13.68;;;15.10;99.90;;;;;;5048167;28;20322;-81
2023/06/18 04:49:00;;;;;;;18.95;13.95;;;15.40;99.90;;;;;;5046193;28;20226;-82
2023/06/18 04:51:27;;;;;;;17.25;13.55;;;15.90;99.90;;;;;;5042493;28;20230;-81
2023/06/18 04:53:54;;;;;;;19.17;13.35;;;16.10;99.90;;;;;;5048338;28;20214;-81
2023/06/18 04:56:21;;;;;;;19.80;13.65;;;16.10;99.90;;;;;;5044075;28;20199;-80
2023/06/18 04:58:47;;;;;;;19.38;13.70;;;16.20;99.90;;;;;;5033254;28;20584;-80
2023/06/18 05:01:16;;;;;;;17.08;13.23;;;16.20;99.90;;;;;;5052243;28;20243;-80
2023/06/18 05:03:44;;;;;;;19.67;13.88;;;16.40;99.90;;;;;;5053833;28;20196;-80
2023/06/18 05:06:11;;;;;;;20.13;14.55;;;16.50;99.90;;;;;;5054138;28;20278;-80
2023/06/18 05:08:38;;;;;;;18.17;13.48;;;16.70;99.90;;;;;;5053584;28;20229;-80
2023/06/18 05:11:05;;;;;;;20.83;14.55;;;16.60;99.90;;;;;;5053719;28;20218;-80
2023/06/18 05:13:32;;;;;;;21.33;15.15;;;16.60;99.90;;;;;;5053877;28;20200;-80
2023/06/18 05:15:58;;;;;;;20.88;14.80;;;16.70;99.90;;;;;;5053106;28;20199;-81
2023/06/18 05:18:27;;;;;;;19.70;13.82;;;16.80;99.90;;;;;;5053914;28;20297;-81
2023/06/18 05:20:53;;;;;;;19.75;14.07;;;16.60;99.90;;;;;;5054071;28;20227;-80
2023/06/18 05:23:20;;;;;;;19.85;13.65;;;16.70;99.90;;;;;;5053613;28;20209;-79
2023/06/18 05:25:47;;;;;;;19.58;14.05;;;16.90;99.90;;;;;;5053063;28;20222;-80
2023/06/18 05:28:14;;;;;;;18.55;13.32;;;16.70;99.90;;;;;;5033882;28;20203;-80
2023/06/18 05:30:42;;;;;;;18.98;13.27;;;16.80;99.90;;;;;;5034807;28;20873;-79
2023/06/18 05:33:08;;;;;;;19.58;13.25;;;16.70;99.90;;;;;;5037367;28;20227;-80
2023/06/18 05:35:37;;;;;;;18.75;13.60;;;17.10;99.90;;;;;;5037330;28;20218;-80
2023/06/18 05:38:03;;;;;;;21.23;13.77;;;17.40;99.90;;;;;;5039156;28;20204;-80
2023/06/18 05:40:30;;;;;;;21.65;13.77;;;18.60;99.90;;;;;;5039112;28;20608;-81
2023/06/18 05:42:57;;;;;;;18.85;14.43;;;19.30;99.90;;;;;;5044519;28;20216;-80
2023/06/18 05:45:24;;;;;;;18.15;12.85;;;19.10;99.90;;;;;;5058274;28;20203;-80
2023/06/18 05:47:50;;;;;;;18.50;13.40;;;18.60;99.90;;;;;;5058422;28;20558;-80
2023/06/18 05:50:17;;;;;;;20.15;15.48;;;18.40;99.90;;;;;;5058788;28;20241;-79
2023/06/18 05:52:45;;;;;;;19.75;13.93;;;18.40;99.90;;;;;;5058101;28;20210;-80
2023/06/18 05:55:12;;;;;;;20.60;14.05;;;18.50;99.90;;;;;;5053773;28;20211;-80
2023/06/18 05:57:39;;;;;;;19.10;13.82;;;18.70;99.90;;;;;;5054692;28;20294;-81
2023/06/18 06:00:07;;;;;;;18.25;13.55;;;18.50;99.90;;;;;;5054528;28;20640;-79
2023/06/18 06:02:34;;;;;;;16.92;12.48;;;18.40;99.90;;;;;;5062848;28;20207;-78
2023/06/18 06:05:01;;;;;;;18.80;13.05;;;18.50;99.90;;;;;;5045394;28;20568;-78
2023/06/18 06:07:28;;;;;;;18.23;13.40;;;18.60;99.90;;;;;;5044305;28;20206;-79
2023/06/18 06:09:56;;;;;;;19.45;14.73;;;18.70;99.90;;;;;;5048121;28;20222;-78
2023/06/18 06:12:23;;;;;;;19.27;13.75;;;18.90;99.90;;;;;;5043486;28;20230;-79
2023/06/18 06:14:50;;;;;;;18.52;13.52;;;19.20;99.90;;;;;;5043906;28;20203;-79
2023/06/18 06:17:17;;;;;;;18.58;14.02;;;19.10;99.90;;;;;;5045754;28;20601;-79
2023/06/18 06:19:44;;;;;;;17.40;13.65;;;19.20;99.90;;;;;;5055695;28;20223;-81
2023/06/18 06:22:11;;;;;;;18.77;14.18;;;19.20;99.90;;;;;;5053765;28;20199;-80
2023/06/18 06:24:38;;;;;;;16.67;12.93;;;19.20;99.90;;;;;;5061975;28;20230;-80
2023/06/18 06:27:06;;;;;;;17.55;13.68;;;19.30;99.90;;;;;;5059428;28;20207;-79
2023/06/18 06:29:33;;;;;;;19.33;13.55;;;19.40;99.90;;;;;;5059004;28;20223;-79
2023/06/18 06:32:00;;;;;;;20.00;14.80;;;19.50;99.90;;;;;;5057845;28;20574;-80
2023/06/18 06:34:27;;;;;;;17.17;13.52;;;19.50;99.90;;;;;;5061300;28;20202;-78
2023/06/18 06:36:53;;;;;;;19.17;14.68;;;19.50;99.90;;;;;;5048927;28;20583;-79
2023/06/18 06:39:20;;;;;;;19.95;14.77;;;19.80;99.90;;;;;;5049028;28;20206;-79
2023/06/18 06:41:47;;;;;;;18.48;14.25;;;19.90;99.90;;;;;;5059310;28;20598;-81
2023/06/18 06:44:16;;;;;;;18.98;13.98;;;19.80;99.90;;;;;;5052474;28;20200;-80
2023/06/18 06:46:43;;;;;;;18.02;13.55;;;19.90;99.90;;;;;;5053735;28;20204;-81
2023/06/18 06:49:10;;;;;;;19.63;15.00;;;19.90;99.90;;;;;;5052614;28;20229;-81
2023/06/18 06:51:37;;;;;;;19.33;14.98;;;20.10;99.90;;;;;;5054374;28;20227;-81
2023/06/18 06:54:05;;;;;;;18.52;14.32;;;20.10;99.90;;;;;;5056861;28;20259;-81
2023/06/18 06:56:33;;;;;;;19.23;14.70;;;20.10;99.90;;;;;;5056025;28;20668;-80
2023/06/18 06:59:00;;;;;;;17.88;13.55;;;20.10;99.90;;;;;;5061025;28;20191;-80
2023/06/18 07:01:28;;;;;;;18.70;13.00;;;20.30;99.90;;;;;;5051848;28;20223;-81
2023/06/18 07:03:56;;;;;;;18.20;13.05;;;20.40;99.90;;;;;;5048870;28;20218;-81
2023/06/18 07:06:22;;;;;;;17.55;13.20;;;20.30;99.90;;;;;;5049131;28;20203;-81
2023/06/18 07:08:51;;;;;;;15.50;11.65;;;20.30;99.90;;;;;;5063178;28;20222;-80
2023/06/18 07:11:18;;;;;;;15.63;10.88;;;20.30;99.90;;;;;;5057401;28;20234;-81
2023/06/18 07:13:45;;;;;;;15.27;12.00;;;20.30;99.90;;;;;;5053495;28;20207;-81
2023/06/18 07:16:12;;;;;;;16.15;12.40;;;20.30;99.90;;;;;;5051192;28;20210;-80
2023/06/18 07:18:40;;;;;;;15.43;12.05;;;20.50;99.90;;;;;;5049627;28;20200;-81
2023/06/18 07:21:07;;;;;;;18.17;11.23;;;20.50;99.90;;;;;;5048336;28;20222;-81
2023/06/18 07:23:34;;;;;;;14.05;11.45;;;20.60;99.90;;;;;;5052915;28;20290;-82
2023/06/18 07:26:01;;;;;;;17.45;11.50;;;20.60;99.90;;;;;;5048996;28;20214;-81
2023/06/18 07:28:28;;;;;;;14.27;10.88;;;20.70;99.90;;;;;;5055834;28;20211;-82
2023/06/18 07:30:55;;;;;;;14.90;11.00;;;20.80;99.90;;;;;;5039270;28;20239;-80
2023/06/18 07:33:22;;;;;;;15.52;11.02;;;20.80;99.90;;;;;;5050700;28;20658;-81
2023/06/18 07:35:50;;;;;;;15.52;11.20;;;20.80;99.90;;;;;;5061246;28;20555;-81
2023/06/18 07:38:17;;;;;;;14.32;10.57;;;21.10;99.90;;;;;;5060542;28;20210;-81
2023/06/18 07:40:43;;;;;;;14.32;10.43;;;21.00;99.90;;;;;;5056507;28;20230;-80
2023/06/18 07:43:10;;;;;;;15.55;12.35;;;21.20;99.90;;;;;;5059812;28;20209;-80
2023/06/18 07:45:38;;;;;;;14.32;11.40;;;21.10;99.90;;;;;;5054765;28;20199;-80
2023/06/18 07:48:07;;;;;;;15.07;11.07;;;21.30;99.90;;;;;;5061884;28;20198;-81
2023/06/18 07:50:34;;;;;;;15.10;10.93;;;21.70;99.90;;;;;;5049303;28;20231;-81
2023/06/18 07:53:02;;;;;;;13.85;11.00;;;21.50;99.90;;;;;;5064290;28;20210;-80
2023/06/18 07:55:29;;;;;;;15.30;11.57;;;21.50;99.90;;;;;;5055916;28;20805;-80
2023/06/18 07:57:56;;;;;;;14.43;11.18;;;21.70;99.90;;;;;;5062291;28;20202;-80
2023/06/18 08:00:23;;;;;;;16.08;11.35;;;21.80;99.90;;;;;;5049167;28;20220;-80
2023/06/18 08:02:51;;;;;;;14.98;11.55;;;21.90;99.90;;;;;;5048523;28;20257;-80
2023/06/18 08:05:18;;;;;;;13.25;10.75;;;21.90;99.90;;;;;;5047891;28;20667;-79
2023/06/18 08:07:45;;;;;;;12.85;10.43;;;21.90;99.90;;;;;;5054157;28;20203;-80
2023/06/18 08:10:13;;;;;;;14.25;10.63;;;22.10;99.90;;;;;;5064084;28;20595;-80
2023/06/18 08:12:40;;;;;;;15.35;11.32;;;22.10;99.90;;;;;;5066807;28;20306;-80
2023/06/18 08:15:08;;;;;;;13.57;10.02;;;22.10;99.90;;;;;;5044533;28;20203;-80
2023/06/18 08:17:35;;;;;;;12.32;10.48;;;22.20;99.90;;;;;;5058689;28;20198;-80
2023/06/18 08:20:01;;;;;;;11.60;9.35;;;22.30;99.90;;;;;;5052088;28;20214;-80
2023/06/18 08:22:28;;;;;;;13.43;10.57;;;22.30;99.90;;;;;;5059745;28;20238;-79
2023/06/18 08:24:55;;;;;;;15.25;9.98;;;22.40;99.90;;;;;;5045728;28;20282;-79
2023/06/18 08:27:24;;;;;;;12.95;9.65;;;22.40;99.90;;;;;;5061218;28;20244;-79
2023/06/18 08:29:50;;;;;;;12.70;9.13;;;22.50;99.90;;;;;;5065377;28;20230;-79
2023/06/18 08:32:17;;;;;;;13.65;9.82;;;22.50;99.90;;;;;;5055442;28;20207;-78
2023/06/18 08:34:45;;;;;;;11.38;8.65;;;22.70;99.90;;;;;;5055065;28;20202;-79
2023/06/18 08:37:13;;;;;;;13.32;9.35;;;22.70;99.90;;;;;;5060728;28;20206;-80
2023/06/18 08:39:40;;;;;;;12.25;9.02;;;22.80;99.90;;;;;;5052965;28;20206;-80
2023/06/18 08:42:08;;;;;;;12.75;9.70;;;22.80;99.90;;;;;;5057478;28;20285;-79
2023/06/18 08:44:37;;;;;;;11.20;8.55;;;22.90;99.90;;;;;;5046490;28;20296;-80
2023/06/18 08:47:04;;;;;;;12.65;9.25;;;22.80;93.50;;;;;;5042376;28;20202;-80
2023/06/18 08:49:32;;;;;;;15.77;9.60;;;23.00;99.90;;;;;;5053259;28;20227;-80
2023/06/18 08:52:03;;;;;;;10.18;9.18;;;23.40;99.90;;;;;;5058360;28;20202;-80
2023/06/18 08:54:33;;;;;;;11.77;9.20;;;23.90;99.90;;;;;;5050895;28;20295;-80
2023/06/18 08:57:12;;;;;;;11.65;9.00;;;23.90;99.90;;;;;;5056289;28;20206;-80
2023/06/18 08:59:43;;;;;;;11.88;9.50;;;24.20;99.90;;;;;;5052298;28;20199;-78
2023/06/18 09:02:11;;;;;;;11.15;8.77;;;24.70;85.90;;;;;;5058496;28;20195;-80
2023/06/18 09:04:38;;;;;;;9.95;8.32;;;24.80;46.50;;;;;;5060517;28;20210;-81
2023/06/18 09:07:07;;;;;;;12.18;8.65;;;25.00;1.00;;;;;;5064782;28;20209;-80
2023/06/18 09:09:34;;;;;;;10.23;7.85;;;24.70;1.00;;;;;;5063249;28;20221;-81
2023/06/18 09:12:00;;;;;;;11.57;8.63;;;25.00;1.00;;;;;;5052014;28;20202;-80
2023/06/18 09:14:27;;;;;;;10.95;8.50;;;25.50;1.00;;;;;;5066077;28;20198;-81
2023/06/18 09:16:57;;;;;;;9.82;8.27;;;25.70;99.90;;;;;;5051748;28;20616;-81
2023/06/18 09:19:24;;;;;;;9.32;8.32;;;26.00;11.20;;;;;;5055015;28;20218;-80
2023/06/18 09:21:52;;;;;;;11.95;8.88;;;26.20;1.00;;;;;;5048771;28;20199;-80
2023/06/18 09:24:20;;;;;;;11.88;8.18;;;26.80;1.00;;;;;;5067012;28;20209;-80
2023/06/18 09:26:48;;;;;;;9.82;8.45;;;26.40;58.90;;;;;;5055576;28;20333;-80
2023/06/18 09:29:15;;;;;;;11.05;8.85;;;26.20;1.00;;;;;;5061987;28;20206;-80
2023/06/18 09:31:45;;;;;;;10.85;7.82;;;26.60;99.90;;;;;;5062596;28;20218;-80
2023/06/18 09:34:15;;;;;;;11.25;8.88;;;26.90;1.00;;;;;;5064208;28;20686;-80
2023/06/18 09:36:43;;;;;;;9.55;8.15;;;26.30;1.00;;;;;;5051912;28;20214;-80
2023/06/18 09:39:20;;;;;;;11.07;8.75;;;26.00;99.90;;;;;;5053029;28;20293;-80
2023/06/18 09:41:49;;;;;;;10.75;9.43;;;25.70;1.00;;;;;;5053240;28;20230;-81
2023/06/18 09:44:16;;;;;;;12.45;9.05;;;26.50;99.90;;;;;;5054303;28;20702;-80
2023/06/18 09:46:44;;;;;;;10.75;8.32;;;26.70;1.00;;;;;;5055361;28;20203;-80
2023/06/18 09:49:12;;;;;;;12.48;9.75;;;26.60;1.00;;;;;;5043303;28;20199;-80
2023/06/18 09:51:41;;;;;;;12.55;8.35;;;27.20;1.00;;;;;;5052925;28;20296;-81
2023/06/18 09:54:09;;;;;;;11.63;9.23;;;27.50;99.90;;;;;;5055056;28;20214;-81
2023/06/18 09:56:36;;;;;;;9.90;8.70;;;27.40;1.00;;;;;;5064674;28;20262;-82
2023/06/18 09:59:03;;;;;;;10.02;8.77;;;27.20;1.00;;;;;;5056939;28;20206;-82
2023/06/18 10:01:44;;;;;;;11.98;8.35;;;27.10;1.00;;;;;;5057474;28;20214;-80
2023/06/18 10:04:11;;;;;;;13.07;9.85;;;26.60;1.00;;;;;;5042521;28;20265;-79
2023/06/18 10:06:42;;;;;;;10.88;8.98;;;26.30;1.00;;;;;;5049161;28;20706;-80
2023/06/18 10:09:10;;;;;;;9.55;7.97;;;26.60;1.00;;;;;;5051422;28;20202;-80
2023/06/18 10:11:38;;;;;;;10.50;8.38;;;27.10;1.00;;;;;;5069210;28;20277;-79
2023/06/18 10:14:11;;;;;;;12.13;8.73;;;27.00;99.90;;;;;;5058112;28;21008;-80
2023/06/18 10:16:41;;;;;;;10.88;8.75;;;27.30;99.90;;;;;;5054998;28;20191;-81
2023/06/18 10:19:13;;;;;;;10.38;8.77;;;27.10;1.00;;;;;;5059124;28;20217;-79
2023/06/18 10:21:47;;;;;;;10.68;8.82;;;27.30;1.00;;;;;;5054290;28;20226;-79
2023/06/18 10:24:18;;;;;;;10.85;8.50;;;27.10;1.00;;;;;;5054482;28;20199;-79
2023/06/18 10:26:46;;;;;;;9.48;8.30;;;27.30;1.00;;;;;;5047922;28;20207;-79
2023/06/18 10:29:13;;;;;;;12.77;9.18;;;27.30;65.80;;;;;;5060464;28;20205;-78
2023/06/18 10:31:40;;;;;;;11.07;8.40;;;27.60;99.90;;;;;;5058390;28;20222;-79
2023/06/18 10:34:08;;;;;;;11.73;9.27;;;27.50;99.90;;;;;;5062356;28;20259;-79
2023/06/18 10:36:36;;;;;;;12.13;8.57;;;26.70;99.90;;;;;;5069466;28;20213;-81
2023/06/18 10:39:05;;;;;;;10.23;8.40;;;27.60;1.00;;;;;;5059683;28;20246;-84
2023/06/18 10:41:32;;;;;;;10.30;8.55;;;27.70;1.00;;;;;;5057250;28;20224;-80
2023/06/18 10:43:59;;;;;;;12.40;10.50;;;27.80;99.90;;;;;;5044481;28;20590;-81
2023/06/18 10:46:26;;;;;;;11.02;8.77;;;28.10;99.90;;;;;;5047469;28;20209;-79
2023/06/18 10:49:16;;;;;;;9.45;8.05;;;28.90;1.00;;;;;;5068000;28;20674;-81
2023/06/18 10:51:51;;;;;;;9.23;7.97;;;28.50;1.00;;;;;;5058349;28;20321;-79
2023/06/18 10:54:25;;;;;;;11.02;8.43;;;29.20;1.00;;;;;;5039028;28;20207;-80
2023/06/18 10:56:54;;;;;;;9.48;8.02;;;28.20;99.90;;;;;;5059527;28;20678;-79
2023/06/18 10:59:37;;;;;;;9.70;8.32;;;28.20;1.00;;;;;;5065133;28;20662;-80
2023/06/18 11:02:05;;;;;;;10.85;7.38;;;28.00;99.90;;;;;;5056464;28;20225;-79
2023/06/18 11:04:33;;;;;;;9.27;7.80;;;28.30;1.00;;;;;;5042842;28;20214;-81
2023/06/18 11:07:19;;;;;;;9.57;7.90;;;28.80;1.00;;;;;;5039852;28;20254;-79
2023/06/18 11:09:52;;;;;;;9.93;8.40;;;28.30;1.00;;;;;;5047851;28;20223;-78
2023/06/18 11:12:21;;;;;;;9.07;7.90;;;28.10;1.00;;;;;;5054431;28;20217;-80
2023/06/18 11:15:13;;;;;;;11.48;8.02;;;27.80;1.00;;;;;;5046034;28;20203;-82
2023/06/18 11:17:43;;;;;;;8.80;7.90;;;27.90;1.00;;;;;;5038364;28;20209;-81
2023/06/18 11:20:12;;;;;;;10.32;8.02;;;27.60;1.00;;;;;;5057088;28;20564;-80
2023/06/18 11:22:40;;;;;;;9.60;7.50;;;28.00;99.90;;;;;;5057382;28;20245;-81
2023/06/18 11:25:10;;;;;;;9.25;7.57;;;28.30;1.00;;;;;;5061676;28;20199;-80
2023/06/18 11:27:40;;;;;;;9.35;8.05;;;27.70;99.90;;;;;;5055152;28;20635;-79
2023/06/18 11:30:09;;;;;;;10.00;8.18;;;27.60;1.00;;;;;;5042087;28;20218;-80
2023/06/18 11:32:36;;;;;;;10.43;7.68;;;27.70;1.00;;;;;;5060818;28;20206;-79
2023/06/18 11:35:06;;;;;;;8.05;7.25;;;27.90;99.90;;;;;;5039387;28;20210;-79
2023/06/18 11:37:33;;;;;;;9.40;7.35;;;28.10;1.00;;;;;;5036361;28;20199;-79
2023/06/18 11:40:00;;;;;;;9.38;7.45;;;28.30;99.90;;;;;;5053666;28;20703;-79
2023/06/18 11:42:29;;;;;;;8.00;7.20;;;27.60;99.90;;;;;;5049507;28;20207;-79
2023/06/18 11:45:01;;;;;;;8.45;7.38;;;27.80;99.90;;;;;;5051942;28;20199;-79
2023/06/18 11:47:28;;;;;;;8.35;6.82;;;28.10;1.00;;;;;;5049245;28;20546;-79
2023/06/18 11:49:55;;;;;;;8.45;7.65;;;28.20;99.90;;;;;;5061516;28;20247;-79
2023/06/18 11:52:24;;;;;;;9.90;7.75;;;28.20;1.00;;;;;;5053936;28;20211;-79
2023/06/18 11:54:53;;;;;;;8.82;7.90;;;27.50;99.90;;;;;;5068584;28;20266;-79
2023/06/18 11:57:21;;;;;;;10.30;7.82;;;27.30;1.00;;;;;;5051364;28;20198;-80
2023/06/18 11:59:52;;;;;;;8.05;7.25;;;27.30;99.90;;;;;;5051292;28;20221;-80
2023/06/18 12:02:20;;;;;;;10.85;7.65;;;27.50;99.90;;;;;;5060621;28;20201;-79
2023/06/18 12:04:47;;;;;;;7.90;6.68;;;27.40;1.00;;;;;;5057957;28;20215;-80
2023/06/18 12:07:17;;;;;;;9.05;7.22;;;27.70;1.00;;;;;;5042393;28;20325;-81
2023/06/18 12:09:45;;;;;;;10.68;7.88;;;27.80;99.90;;;;;;5049703;28;20199;-80
2023/06/18 12:12:27;;;;;;;8.25;6.88;;;27.70;99.90;;;;;;5055893;28;20686;-79
2023/06/18 12:15:05;;;;;;;9.35;7.57;;;27.70;1.00;;;;;;5059448;28;20213;-79
2023/06/18 12:17:43;;;;;;;8.20;7.35;;;27.90;1.00;;;;;;5047992;28;20199;-79
2023/06/18 12:20:11;;;;;;;8.05;6.70;;;27.80;99.90;;;;;;5057791;28;21045;-80
2023/06/18 12:22:39;;;;;;;7.55;6.75;;;27.40;99.90;;;;;;5069881;28;20209;-79
2023/06/18 12:25:07;;;;;;;7.97;6.85;;;27.10;99.90;;;;;;5055707;28;20262;-81
2023/06/18 12:27:35;;;;;;;11.63;7.65;;;27.20;99.90;;;;;;5055977;28;20206;-81
2023/06/18 12:30:05;;;;;;;9.95;7.38;;;27.30;1.00;;;;;;5061901;28;20227;-81
2023/06/18 12:32:33;;;;;;;8.38;7.47;;;27.30;1.00;;;;;;5066465;28;20246;-80
2023/06/18 12:35:10;;;;;;;8.10;7.30;;;27.30;1.00;;;;;;5056665;28;20677;-80
2023/06/18 12:37:37;;;;;;;8.93;7.30;;;27.20;1.00;;;;;;5061669;28;20194;-80